Time;durP1;ratioP1;P1;durP2;ratioP2;P2;SDS_P1;SDS_P2;PMS_P1;PMS_P2;Temp;Humidity;BMP_temperature;BMP_pressure;BME280_temperature;BME280_humidity;BME280_pressure;Samples;Min_cycle;Max_cycle;Signal;HPM_P1;HPM_P2
2022/05/24 00:01:11;;;;;;;10.55;5.28;;;;;;;13.46;65.84;99607.56;3334451;86;98963;-80
2022/05/24 00:06:14;;;;;;;10.30;4.87;;;;;;;13.44;65.58;99598.88;3340111;85;99227;-81
2022/05/24 00:11:15;;;;;;;8.93;4.60;;;;;;;13.43;65.59;99600.09;3327444;85;99059;-81
2022/05/24 00:16:16;;;;;;;8.77;4.20;;;;;;;13.42;65.96;99585.47;3347034;86;98709;-80
2022/05/24 00:21:17;;;;;;;10.18;4.83;;;;;;;13.42;68.29;99591.00;3301160;86;99084;-81
2022/05/24 00:26:24;;;;;;;9.60;4.73;;;;;;;13.48;67.08;99585.80;3347716;86;98735;-80
2022/05/24 00:31:25;;;;;;;;;;;;;;;13.51;66.65;99587.13;3320212;85;98606;-80
2022/05/24 00:36:26;;;;;;;9.27;3.97;;;;;;;13.53;67.38;99576.43;3343264;85;84161;-80
2022/05/24 00:42:03;;;;;;;9.60;4.47;;;;;;;13.57;67.16;99577.16;3303732;86;99107;-81
2022/05/24 00:47:08;;;;;;;9.85;4.95;;;;;;;13.61;66.72;99554.41;3344552;86;99092;-80
2022/05/24 00:52:17;;;;;;;7.70;4.17;;;;;;;13.68;66.94;99548.77;3335848;86;98680;-80
2022/05/24 00:57:38;;;;;;;10.58;4.40;;;;;;;13.73;66.60;99548.29;3338718;85;30950;-81
2022/05/24 01:02:41;;;;;;;9.03;4.07;;;;;;;13.78;67.36;99540.91;3328552;86;98637;-80
2022/05/24 01:07:42;;;;;;;10.20;4.45;;;;;;;13.82;66.22;99545.78;3334101;85;98492;-80
2022/05/24 01:13:12;;;;;;;8.33;3.70;;;;;;;13.91;66.44;99534.95;3342051;85;99157;-80
2022/05/24 01:18:16;;;;;;;7.80;3.80;;;;;;;13.91;66.44;99534.95;3355625;86;98807;-79
2022/05/24 01:23:42;;;;;;;7.08;3.80;;;;;;;13.94;65.45;99519.50;3326093;86;99046;-80
2022/05/24 01:28:58;;;;;;;8.43;4.08;;;;;;;13.97;65.38;99513.93;3330564;86;98698;-80
2022/05/24 01:39:18;;;;;;;9.65;4.25;;;;;;;14.00;65.49;99504.77;3327200;87;30421;-80
2022/05/24 01:44:30;;;;;;;11.03;4.90;;;;;;;14.02;65.44;99495.44;3330639;85;98587;-80
2022/05/24 01:49:36;;;;;;;9.48;4.78;;;;;;;14.03;65.28;99485.16;3351101;86;99182;-81
2022/05/24 01:54:45;;;;;;;8.73;4.53;;;;;;;14.04;65.54;99481.19;3336787;85;98593;-81
2022/05/24 01:59:50;;;;;;;7.33;4.08;;;;;;;14.03;65.25;99467.97;3336018;86;98739;-81
2022/05/24 02:04:51;;;;;;;8.73;4.58;;;;;;;14.03;65.43;99465.80;3314310;85;98773;-80
2022/05/24 02:09:56;;;;;;;11.73;4.73;;;;;;;14.02;65.58;99459.47;3360275;85;98688;-81
2022/05/24 02:15:08;;;;;;;8.98;4.10;;;;;;;14.01;65.66;99456.53;3342613;85;98702;-81
2022/05/24 02:20:14;;;;;;;8.58;4.40;;;;;;;14.02;65.12;99461.47;3310253;86;98875;-81
2022/05/24 02:25:35;;;;;;;9.18;4.42;;;;;;;14.01;65.45;99454.38;3326882;86;98608;-82
2022/05/24 02:30:41;;;;;;;7.58;3.85;;;;;;;14.02;65.01;99444.26;3327434;86;98741;-80
2022/05/24 02:35:42;;;;;;;8.58;4.17;;;;;;;13.93;65.32;99444.05;3340269;85;98778;-82
2022/05/24 02:46:03;;;;;;;7.50;4.00;;;;;;;13.99;65.37;99440.17;3347457;86;99118;-81
2022/05/24 02:51:10;;;;;;;7.90;3.97;;;;;;;13.96;65.33;99437.66;3344092;85;98598;-81
2022/05/24 02:56:11;;;;;;;6.53;3.92;;;;;;;13.95;65.33;99429.80;3357477;85;98445;-81
2022/05/24 03:01:20;;;;;;;8.60;4.17;;;;;;;13.96;65.31;99418.91;3336738;86;98961;-82
2022/05/24 03:06:23;;;;;;;10.17;4.67;;;;;;;13.96;65.63;99421.05;3328291;85;99057;-81
2022/05/24 03:11:24;;;;;;;9.03;4.37;;;;;;;13.97;65.64;99424.03;3323308;86;99209;-82
2022/05/24 03:16:26;;;;;;;10.00;4.60;;;;;;;13.99;65.81;99426.34;3337905;85;98794;-81
2022/05/24 03:21:27;;;;;;;10.15;4.92;;;;;;;13.98;65.87;99424.79;3356520;85;98797;-82
2022/05/24 03:26:28;;;;;;;10.87;5.03;;;;;;;14.01;65.78;99432.25;3351663;85;98718;-81
2022/05/24 03:31:29;;;;;;;10.00;4.70;;;;;;;13.99;65.85;99424.37;3346800;86;98891;-81
2022/05/24 03:36:30;;;;;;;9.90;4.87;;;;;;;13.97;66.09;99415.73;3331769;86;98879;-81
2022/05/24 03:41:31;;;;;;;8.73;4.87;;;;;;;13.96;66.31;99427.20;3329244;86;99050;-82
2022/05/24 03:46:32;;;;;;;11.60;4.90;;;;;;;13.95;67.43;99422.27;3334088;85;98718;-81
2022/05/24 03:51:33;;;;;;;8.83;4.80;;;;;;;13.96;66.94;99418.91;3350047;85;98879;-81
2022/05/24 03:56:36;;;;;;;11.60;5.00;;;;;;;13.90;67.70;99413.69;3330887;86;98728;-82
2022/05/24 04:01:37;;;;;;;10.03;5.20;;;;;;;13.85;68.35;99403.88;3335431;86;99543;-80
2022/05/24 04:06:38;;;;;;;8.10;4.37;;;;;;;13.83;68.48;99408.27;3349709;85;98865;-80
2022/05/24 04:11:38;;;;;;;11.13;5.30;;;;;;;13.83;68.33;99406.88;3336949;86;99098;-80
2022/05/24 04:16:39;;;;;;;9.27;4.57;;;;;;;13.82;68.62;99414.42;3317606;86;98802;-81
2022/05/24 04:21:40;;;;;;;8.60;4.43;;;;;;;13.82;68.58;99419.16;3320065;85;98784;-81
2022/05/24 04:26:41;;;;;;;9.20;4.92;;;;;;;13.85;68.17;99432.16;3337202;85;34867;-81
2022/05/24 04:31:42;;;;;;;9.18;4.42;;;;;;;13.88;68.23;99430.70;3325219;85;99133;-80
2022/05/24 04:36:43;;;;;;;8.03;4.57;;;;;;;13.93;67.72;99434.95;3325298;86;98766;-82
2022/05/24 04:47:10;;;;;;;9.25;5.35;;;;;;;13.91;69.07;99418.02;3334607;85;98787;-81
2022/05/24 04:52:13;;;;;;;9.70;5.10;;;;;;;13.92;68.68;99418.98;3348753;85;98804;-80
2022/05/24 04:57:14;;;;;;;10.68;5.50;;;;;;;14.02;68.36;99423.51;3328149;86;34999;-81
2022/05/24 05:02:20;;;;;;;11.30;4.73;;;;;;;14.08;68.25;99418.28;3330958;85;98945;-82
2022/05/24 05:07:21;;;;;;;12.68;4.33;;;;;;;14.14;68.02;99413.81;3342360;85;98664;-83
2022/05/24 05:12:25;;;;;;;12.23;4.80;;;;;;;14.16;68.38;99421.87;3339786;85;98878;-81
2022/05/24 05:17:25;;;;;;;8.35;4.33;;;;;;;14.14;68.12;99417.95;3337273;86;98918;-82
2022/05/24 05:22:26;;;;;;;7.47;4.17;;;;;;;14.21;68.53;99413.70;3335687;86;98706;-80
2022/05/24 05:27:27;;;;;;;9.77;4.57;;;;;;;14.18;68.31;99415.91;3343466;85;32781;-79
2022/05/24 05:32:30;;;;;;;10.10;4.83;;;;;;;14.21;68.23;99408.16;3286520;86;98702;-82
2022/05/24 05:37:33;;;;;;;12.07;5.20;;;;;;;14.24;68.04;99409.50;3303107;85;98802;-82
2022/05/24 05:42:35;;;;;;;9.35;5.33;;;;;;;14.24;68.48;99407.32;3316753;86;98873;-80
2022/05/24 05:47:36;;;;;;;9.33;5.23;;;;;;;14.27;68.43;99406.45;3342054;83;98856;-90
2022/05/24 05:52:37;;;;;;;9.83;5.07;;;;;;;14.30;68.46;99402.84;3406029;84;98705;-87
2022/05/24 05:57:38;;;;;;;8.63;4.63;;;;;;;14.39;68.20;99412.13;3427768;84;26270;-88
2022/05/24 06:02:41;;;;;;;10.13;4.87;;;;;;;14.49;68.16;99411.14;3460114;82;98825;-85
2022/05/24 06:07:42;;;;;;;9.63;4.65;;;;;;;14.58;68.65;99409.17;3489309;82;98747;-90
2022/05/24 06:12:43;;;;;;;10.50;5.17;;;;;;;14.61;68.36;99405.56;3488312;82;98536;-91
2022/05/24 06:17:48;;;;;;;9.40;5.40;;;;;;;14.68;68.24;99405.41;3489662;82;98803;-94
2022/05/24 06:22:54;;;;;;;10.58;5.37;;;;;;;14.65;68.10;99402.09;3491709;83;98685;-94
2022/05/24 06:27:56;;;;;;;10.58;6.25;;;;;;;14.76;68.21;99417.28;3488071;82;98848;-88
2022/05/24 06:32:57;;;;;;;13.20;6.42;;;;;;;14.80;68.03;99430.45;3476808;82;98486;-95
2022/05/24 06:37:58;;;;;;;10.98;6.50;;;;;;;14.83;68.12;99423.28;3488991;82;99146;-93
2022/05/24 06:42:59;;;;;;;9.43;5.17;;;;;;;14.79;68.41;99423.36;3508665;82;99139;-92
2022/05/24 06:48:00;;;;;;;11.48;6.03;;;;;;;14.86;68.43;99423.20;3483913;82;98665;-95
2022/05/24 06:53:01;;;;;;;11.43;5.95;;;;;;;14.83;69.35;99427.44;3482248;82;99028;-94
2022/05/24 06:58:03;;;;;;;10.77;6.07;;;;;;;14.86;69.17;99432.09;3473007;83;98890;-91
2022/05/24 07:03:12;;;;;;;12.18;6.58;;;;;;;14.88;69.76;99433.23;3460411;83;98658;-94
2022/05/24 07:08:13;;;;;;;11.70;6.30;;;;;;;14.89;70.95;99428.48;3479652;82;98634;-95
2022/05/24 07:13:19;;;;;;;12.60;7.60;;;;;;;14.99;70.15;99439.31;3486197;82;98861;-88
2022/05/24 07:18:20;;;;;;;11.33;7.20;;;;;;;15.09;70.19;99440.31;3505560;82;98804;-87
2022/05/24 07:23:26;;;;;;;12.33;6.80;;;;;;;15.21;69.75;99438.24;3478417;83;98931;-87
2022/05/24 07:28:27;;;;;;;13.83;6.83;;;;;;;15.22;69.55;99439.20;3486560;82;98843;-84
2022/05/24 07:33:28;;;;;;;14.97;6.30;;;;;;;15.26;70.02;99446.05;3470741;82;98934;-85
2022/05/24 07:38:29;;;;;;;13.00;7.40;;;;;;;15.36;69.55;99445.81;3448008;82;99033;-89
2022/05/24 07:48:49;;;;;;;15.13;7.25;;;;;;;15.61;69.24;99443.82;3510022;83;99254;-89
2022/05/24 07:53:50;;;;;;;12.90;7.90;;;;;;;15.66;68.85;99437.16;3460947;82;98923;-87
2022/05/24 07:58:51;;;;;;;13.15;6.83;;;;;;;15.83;68.72;99447.02;3494222;82;98867;-90
2022/05/24 08:03:52;;;;;;;11.90;6.53;;;;;;;16.04;68.11;99449.24;3465065;82;99598;-89
2022/05/24 08:08:53;;;;;;;14.70;6.80;;;;;;;16.24;67.91;99451.25;3487299;82;32298;-88
2022/05/24 08:13:54;;;;;;;11.12;6.53;;;;;;;16.39;67.65;99455.23;3513923;82;98893;-92
2022/05/24 08:18:58;;;;;;;12.78;7.15;;;;;;;16.51;67.39;99446.79;3485402;83;98800;-88
2022/05/24 08:23:59;;;;;;;12.28;6.90;;;;;;;16.65;66.54;99454.70;3492096;82;99036;-89
2022/05/24 08:28:59;;;;;;;12.73;6.55;;;;;;;16.88;66.31;99463.53;3457672;82;98781;-89
2022/05/24 08:34:01;;;;;;;13.55;7.10;;;;;;;17.06;65.77;99470.72;3481172;82;98712;-88
2022/05/24 08:39:03;;;;;;;15.13;6.92;;;;;;;17.16;65.62;99474.42;3497053;82;33064;-85
2022/05/24 08:49:57;;;;;;;11.05;7.12;;;;;;;17.48;65.18;99470.83;3490377;83;98762;-87
2022/05/24 08:54:58;;;;;;;9.55;5.80;;;;;;;17.67;64.54;99470.42;3484804;82;98841;-90
2022/05/24 09:00:11;;;;;;;12.25;7.67;;;;;;;17.90;64.69;99479.18;3457511;83;98720;-89
2022/05/24 09:05:21;;;;;;;14.93;7.40;;;;;;;17.97;64.22;99480.92;3443597;83;98936;-87
2022/05/24 09:10:27;;;;;;;13.18;7.28;;;;;;;18.01;64.11;99485.17;3470989;82;98880;-88
2022/05/24 09:16:17;;;;;;;14.03;7.80;;;;;;;18.10;63.85;99480.30;3485512;82;98340;-89
2022/05/24 09:21:26;;;;;;;14.25;7.60;;;;;;;18.27;63.61;99476.11;3504745;81;98831;-88
2022/05/24 09:26:29;;;;;;;13.40;7.15;;;;;;;18.42;63.61;99487.72;3493864;82;98611;-89
2022/05/24 09:31:44;;;;;;;12.50;7.90;;;;;;;18.56;63.64;99482.25;3456215;83;99228;-86
2022/05/24 09:36:59;;;;;;;12.58;8.50;;;;;;;18.70;63.67;99483.91;3515552;82;99238;-86
2022/05/24 09:42:07;;;;;;;14.47;8.63;;;;;;;18.74;64.16;99492.16;3459984;82;98734;-88
2022/05/24 09:47:35;;;;;;;13.50;8.93;;;;;;;18.60;66.28;99499.63;3444288;82;98899;-87
2022/05/24 09:52:35;;;;;;;15.00;9.45;;;;;;;18.49;67.32;99499.23;3492819;82;98907;-88
2022/05/24 09:57:36;;;;;;;16.67;8.68;;;;;;;18.48;68.21;99499.84;3480499;82;33808;-87
2022/05/24 10:02:39;;;;;;;12.10;8.78;;;;;;;18.22;68.52;99503.94;3488317;82;98562;-87
2022/05/24 10:07:40;;;;;;;13.83;8.43;;;;;;;18.11;69.10;99506.91;3468346;82;98599;-95
2022/05/24 10:13:07;;;;;;;15.15;9.68;;;;;;;18.08;69.09;99510.58;3495117;82;99085;-93
2022/05/24 10:18:41;;;;;;;14.35;9.70;;;;;;;17.95;70.24;99518.19;3475146;82;98946;-88
2022/05/24 10:24:13;;;;;;;14.30;8.83;;;;;;;17.82;70.73;99515.42;3468774;82;99189;-91
2022/05/24 10:29:55;;;;;;;17.37;10.23;;;;;;;17.78;71.43;99518.16;3424658;82;98773;-90
2022/05/24 10:40:34;;;;;;;15.23;9.40;;;;;;;18.15;72.36;99532.00;3438558;82;98924;-87
2022/05/24 10:45:49;;;;;;;18.02;10.65;;;;;;;18.49;72.25;99536.85;3497791;82;98241;-90
2022/05/24 10:50:55;;;;;;;18.70;11.03;;;;;;;18.98;72.90;99521.91;3442922;83;98725;-94
2022/05/24 10:56:11;;;;;;;15.05;10.18;;;;;;;19.47;72.08;99527.62;3452000;82;98917;-95
2022/05/24 11:01:34;;;;;;;13.45;10.05;;;;;;;20.03;70.71;99526.11;3479332;83;99101;-94
2022/05/24 11:06:59;;;;;;;14.95;9.25;;;;;;;20.65;70.87;99533.67;3519714;82;98138;-93
2022/05/24 11:12:08;;;;;;;13.58;8.15;;;;;;;21.20;69.95;99532.38;3450760;82;98919;-94
2022/05/24 11:17:13;;;;;;;15.03;9.00;;;;;;;21.76;68.54;99537.52;3488894;82;99313;-92
2022/05/24 11:22:40;;;;;;;17.62;8.98;;;;;;;22.18;66.76;99539.59;3468137;82;98959;-96
2022/05/24 11:27:58;;;;;;;12.63;8.40;;;;;;;22.51;66.26;99536.13;3488299;82;34964;-93
2022/05/24 11:33:13;;;;;;;14.70;8.18;;;;;;;22.69;65.25;99535.22;3425238;82;98921;-96
2022/05/24 11:38:25;;;;;;;13.25;8.08;;;;;;;23.03;64.69;99534.59;3471532;82;98636;-93
2022/05/24 11:43:44;;;;;;;16.57;8.28;;;;;;;23.22;64.08;99525.52;3479954;82;98862;-90
2022/05/24 11:48:52;;;;;;;10.82;7.35;;;;;;;23.43;63.33;99533.43;3490066;82;98833;-95
2022/05/24 11:53:53;;;;;;;12.78;8.28;;;;;;;23.84;63.18;99528.06;3438926;82;99290;-94
2022/05/24 11:59:02;;;;;;;12.75;8.98;;;;;;;24.37;62.29;99519.53;3494538;82;98893;-93
2022/05/24 12:09:27;;;;;;;15.53;8.50;;;;;;;25.30;59.75;99520.47;3498430;82;30320;-89
2022/05/24 12:14:39;;;;;;;12.43;7.50;;;;;;;25.75;58.50;99508.27;3449940;82;98866;-92
2022/05/24 12:19:47;;;;;;;12.53;7.50;;;;;;;26.17;57.91;99525.23;3503814;81;99140;-91
2022/05/24 12:24:53;;;;;;;10.98;6.62;;;;;;;26.36;57.06;99519.28;3421993;83;98855;-95
2022/05/24 12:30:33;;;;;;;11.30;6.42;;;;;;;26.48;57.00;99530.12;3499793;82;99203;-94
2022/05/24 12:35:35;;;;;;;12.37;8.10;;;;;;;26.82;56.55;99533.88;3504141;82;98836;-95
2022/05/24 12:40:36;;;;;;;12.00;6.83;;;;;;;26.75;55.15;99531.55;3492580;82;98755;-92
2022/05/24 12:45:44;;;;;;;12.07;7.40;;;;;;;26.67;55.29;99526.25;3501777;82;99204;-95
2022/05/24 12:50:45;;;;;;;15.28;8.75;;;;;;;26.56;54.43;99527.62;3463069;82;98787;-95
2022/05/24 12:56:01;;;;;;;11.83;6.83;;;;;;;25.96;53.58;99536.50;3454866;82;97996;-96
2022/05/24 13:01:15;;;;;;;10.65;7.78;;;;;;;25.68;54.90;99542.55;3475135;83;98929;-95
2022/05/24 13:06:27;;;;;;;11.73;7.20;;;;;;;25.62;54.48;99550.20;3499639;83;97957;-95
2022/05/24 13:11:28;;;;;;;12.40;8.48;;;;;;;25.34;54.89;99559.05;3464904;82;99182;-94
2022/05/24 13:16:31;;;;;;;11.43;6.87;;;;;;;24.94;55.22;99559.88;3467722;82;35518;-93
2022/05/24 13:21:34;;;;;;;11.78;6.67;;;;;;;24.62;56.42;99558.87;3477685;82;99039;-96
2022/05/24 13:26:35;;;;;;;13.00;6.05;;;;;;;24.48;56.72;99558.27;3434075;82;98695;-93
2022/05/24 13:37:11;;;;;;;16.87;8.80;;;;;;;23.81;60.03;99583.20;3499484;81;98947;-92
2022/05/24 13:42:19;;;;;;;12.55;9.15;;;;;;;23.25;62.76;99589.14;3468280;82;98933;-90
2022/05/24 13:47:27;;;;;;;16.85;10.88;;;;;;;22.66;65.39;99590.89;3437930;82;99124;-89
2022/05/24 13:52:52;;;;;;;14.43;10.45;;;;;;;22.13;68.33;99571.08;3490387;81;99088;-90
2022/05/24 13:58:04;;;;;;;16.17;10.75;;;;;;;22.05;69.84;99603.52;3491594;82;34919;-88
2022/05/24 14:03:16;;;;;;;17.02;11.80;;;;;;;22.16;70.11;99614.20;3493868;81;98962;-89
2022/05/24 14:08:17;;;;;;;14.58;11.97;;;;;;;22.26;71.36;99613.69;3481441;83;99073;-89
2022/05/24 14:13:18;;;;;;;14.40;11.40;;;;;;;22.27;71.75;99604.64;3480480;81;99622;-91
2022/05/24 14:18:19;;;;;;;17.25;11.20;;;;;;;22.43;73.97;99605.02;3501987;81;98999;-87
2022/05/24 14:23:28;;;;;;;15.08;11.08;;;;;;;22.37;74.37;99603.34;3482965;83;99629;-88
2022/05/24 14:28:27;;;;;;;15.08;11.88;;;;;;;22.31;73.23;99609.45;3516874;81;35492;-87
2022/05/24 14:33:28;;;;;;;14.78;9.95;;;;;;;22.20;74.25;99606.40;3488659;82;99141;-87
2022/05/24 14:38:31;;;;;;;17.17;13.83;;;;;;;22.31;74.34;99594.82;3501207;81;99023;-86
2022/05/24 14:43:33;;;;;;;18.98;14.07;;;;;;;22.19;75.46;99598.60;3480066;82;99472;-86
2022/05/24 14:48:34;;;;;;;19.15;12.37;;;;;;;22.18;75.71;99591.45;3511653;82;99514;-87
2022/05/24 14:53:38;;;;;;;18.40;13.45;;;;;;;22.21;75.73;99589.72;3498121;82;99129;-87
2022/05/24 14:58:39;;;;;;;15.53;11.28;;;;;;;22.24;76.37;99582.53;3495528;82;35403;-87
2022/05/24 15:03:40;;;;;;;16.82;12.50;;;;;;;22.11;76.33;99583.40;3491830;82;98864;-88
2022/05/24 15:19:26;;;;;;;15.15;12.18;;;;;;;22.18;76.13;99588.65;3507758;82;99484;-94
2022/05/24 15:24:38;;;;;;;18.98;12.60;;;;;;;22.05;75.90;99592.31;3483654;82;99089;-94
2022/05/24 15:29:41;;;;;;;14.50;9.88;;;;;;;22.02;76.38;99599.48;3492197;81;99013;-92
2022/05/24 15:34:49;;;;;;;14.70;10.90;;;;;;;22.14;76.05;99607.69;3466701;82;98895;-92
2022/05/24 15:39:56;;;;;;;13.10;10.70;;;;;;;22.14;76.05;99607.69;3461919;81;99071;-94
2022/05/24 15:44:57;;;;;;;16.73;11.53;;;;;;;22.16;76.05;99609.98;3487170;82;98883;-92
2022/05/24 15:50:01;;;;;;;19.65;12.30;;;;;;;22.23;76.45;99612.47;3489842;83;98981;-94
2022/05/24 15:55:04;;;;;;;15.88;12.43;;;;;;;22.15;76.98;99615.45;3474130;82;99352;-96
2022/05/24 16:00:13;;;;;;;18.50;14.05;;;;;;;22.11;76.91;99621.84;3476838;82;99417;-94
2022/05/24 16:10:33;;;;;;;16.82;12.10;;;;;;;21.96;76.41;99639.22;3471925;81;99098;-92
2022/05/24 16:15:36;;;;;;;17.32;13.18;;;;;;;21.93;76.25;99646.53;3474255;82;98798;-91
2022/05/24 16:20:43;;;;;;;18.90;15.20;;;;;;;21.94;76.69;99631.27;3462875;83;99162;-94
2022/05/24 16:25:48;;;;;;;17.55;13.50;;;;;;;21.53;77.11;99631.22;3488576;81;98923;-94
2022/05/24 16:30:49;;;;;;;16.07;12.05;;;;;;;21.28;77.38;99616.95;3429041;83;99105;-94
2022/05/24 16:35:50;;;;;;;18.40;13.93;;;;;;;21.35;77.39;99636.83;3513291;82;99060;-93
2022/05/24 16:40:51;;;;;;;20.23;15.83;;;;;;;21.23;77.56;99636.38;3491707;83;98855;-92
2022/05/24 16:45:52;;;;;;;18.62;14.93;;;;;;;21.13;78.44;99644.01;3461138;83;98796;-95
2022/05/24 16:50:53;;;;;;;18.93;16.63;;;;;;;20.98;78.33;99648.66;3482288;83;98997;-92
2022/05/24 17:01:18;;;;;;;20.72;16.05;;;;;;;20.81;78.63;99653.61;3497469;82;99280;-91
2022/05/24 17:06:20;;;;;;;23.25;13.90;;;;;;;20.79;77.27;99660.27;3497683;82;99064;-89
2022/05/24 17:11:21;;;;;;;22.02;16.52;;;;;;;20.66;76.76;99668.79;3461225;82;98725;-92
2022/05/24 17:16:22;;;;;;;22.45;15.35;;;;;;;20.61;76.11;99658.22;3468187;81;98847;-90
2022/05/24 17:21:23;;;;;;;18.60;15.60;;;;;;;20.50;76.13;99659.91;3490502;81;98966;-89
2022/05/24 17:26:24;;;;;;;21.37;12.70;;;;;;;20.33;76.54;99665.62;3490441;82;99012;-88
2022/05/24 17:31:25;;;;;;;22.10;14.58;;;;;;;20.19;76.80;99671.77;3474459;82;99051;-89
2022/05/24 17:36:26;;;;;;;21.20;13.05;;;;;;;20.09;76.78;99668.77;3479452;82;98244;-89
2022/05/24 17:41:28;;;;;;;22.42;15.85;;;;;;;19.95;77.10;99676.30;3446995;82;99090;-91
2022/05/24 17:46:29;;;;;;;20.25;14.75;;;;;;;19.86;77.73;99675.63;3458190;83;99150;-91
2022/05/24 17:51:30;;;;;;;21.20;15.15;;;;;;;19.76;78.08;99684.39;3500639;82;99248;-90
2022/05/24 17:56:31;;;;;;;20.70;13.65;;;;;;;19.75;78.46;99688.42;3465966;82;98993;-91
2022/05/24 18:01:33;;;;;;;20.00;14.18;;;;;;;19.70;78.11;99695.99;3473696;83;98975;-91
2022/05/24 18:06:36;;;;;;;21.35;14.13;;;;;;;19.62;78.54;99697.50;3474698;82;98966;-89
2022/05/24 18:11:37;;;;;;;24.55;14.68;;;;;;;19.54;78.79;99710.94;3441367;82;99054;-93
2022/05/24 18:16:38;;;;;;;25.37;16.42;;;;;;;19.50;79.01;99724.88;3532232;82;98681;-89
2022/05/24 18:21:42;;;;;;;20.45;15.45;;;;;;;19.41;79.87;99724.16;3525880;81;98883;-88
2022/05/24 18:37:35;;;;;;;18.65;15.20;;;;;;;19.17;80.31;99730.58;3482661;82;99085;-90
2022/05/24 18:42:37;;;;;;;18.07;15.00;;;;;;;19.16;80.48;99736.00;3494298;82;99453;-90
2022/05/24 18:47:39;;;;;;;18.15;13.50;;;;;;;19.09;80.66;99737.05;3494809;82;34888;-90
2022/05/24 18:52:41;;;;;;;21.12;15.85;;;;;;;19.07;80.36;99747.09;3501300;82;98959;-94
2022/05/24 18:57:42;;;;;;;20.85;15.85;;;;;;;19.03;81.04;99756.19;3500308;83;99213;-95
2022/05/24 19:02:43;;;;;;;23.27;16.15;;;;;;;18.91;81.46;99763.34;3472279;82;98956;-95
2022/05/24 19:07:44;;;;;;;25.15;17.37;;;;;;;18.77;82.22;99766.61;3491665;82;99090;-95
2022/05/24 19:12:45;;;;;;;22.25;17.32;;;;;;;18.69;82.41;99763.88;3465939;82;99104;-96
2022/05/24 19:17:46;;;;;;;26.02;17.17;;;;;;;18.60;82.28;99773.55;3475839;82;98159;-95
2022/05/24 19:22:47;;;;;;;24.15;18.67;;;;;;;18.49;83.69;99766.13;3477816;82;98450;-94
2022/05/24 19:27:48;;;;;;;27.82;18.20;;;;;;;18.41;83.45;99766.77;3477016;82;98793;-95
2022/05/24 19:32:49;;;;;;;25.90;18.70;;;;;;;18.34;84.29;99772.57;3485945;82;99038;-92
2022/05/24 19:37:50;;;;;;;26.95;19.23;;;;;;;18.26;84.66;99777.55;3472677;82;98211;-91
2022/05/24 19:42:51;;;;;;;20.77;15.58;;;;;;;18.20;84.91;99792.48;3506761;82;98967;-94
2022/05/24 19:47:53;;;;;;;28.70;18.95;;;;;;;18.15;85.09;99802.15;3502683;82;99058;-95
2022/05/24 19:52:57;;;;;;;24.00;18.10;;;;;;;18.06;85.84;99809.60;3407054;83;99306;-94
2022/05/24 19:57:57;;;;;;;23.05;19.40;;;;;;;18.03;85.81;99824.42;3503371;82;98884;-93
2022/05/24 20:02:58;;;;;;;23.00;17.12;;;;;;;18.01;86.14;99837.98;3461554;81;98837;-95
2022/05/24 20:08:02;;;;;;;26.75;21.10;;;;;;;17.97;86.39;99850.63;3482457;82;98087;-94
2022/05/24 20:13:03;;;;;;;25.10;20.52;;;;;;;17.94;87.82;99857.69;3485925;81;98967;-96
2022/05/24 20:18:04;;;;;;;24.52;19.10;;;;;;;17.94;89.62;99870.21;3489735;81;98251;-96
2022/05/24 20:23:05;;;;;;;22.98;17.62;;;;;;;17.93;90.33;99878.41;3459021;82;98635;-96
2022/05/24 20:28:08;;;;;;;18.77;15.13;;;;;;;17.91;90.26;99881.61;3466027;82;98072;-96
2022/05/24 20:33:11;;;;;;;18.48;15.28;;;;;;;17.89;91.45;99888.25;3489844;82;98176;-96
2022/05/24 20:38:12;;;;;;;15.48;10.48;;;;;;;17.88;91.54;99899.19;3468264;82;98294;-95
2022/05/24 20:43:14;;;;;;;12.65;8.23;;;;;;;17.87;90.87;99896.86;3458749;82;98236;-95
2022/05/24 20:48:14;;;;;;;14.25;9.80;;;;;;;17.85;90.27;99897.30;3456059;82;98848;-91
2022/05/24 20:53:16;;;;;;;13.53;8.68;;;;;;;17.81;89.80;99902.16;3482414;82;98508;-96
2022/05/24 20:58:17;;;;;;;12.25;6.92;;;;;;;17.80;89.11;99915.92;3517329;82;98573;-91
2022/05/24 21:03:20;;;;;;;12.07;6.75;;;;;;;17.77;88.74;99929.93;3496642;82;99110;-92
2022/05/24 21:08:21;;;;;;;7.62;4.70;;;;;;;17.73;88.29;99941.76;3487894;82;98955;-91
2022/05/24 21:13:27;;;;;;;6.70;4.30;;;;;;;17.63;87.81;99941.41;3456629;82;98723;-95
2022/05/24 21:18:28;;;;;;;;;;;;;;;17.55;87.33;99945.61;3487528;82;99002;-94
2022/05/24 21:23:29;;;;;;;10.43;4.12;;;;;;;17.46;87.30;99950.39;3490517;82;85152;-93
2022/05/24 21:28:37;;;;;;;7.53;4.05;;;;;;;17.38;86.27;99956.53;3472371;82;98636;-95
2022/05/24 21:33:38;;;;;;;9.25;4.20;;;;;;;17.28;86.05;99964.52;3465942;82;98793;-93
2022/05/24 21:38:39;;;;;;;7.40;4.13;;;;;;;17.17;85.80;99977.87;3502125;81;98689;-93
2022/05/24 21:43:40;;;;;;;10.67;4.00;;;;;;;17.05;85.77;99982.10;3477692;81;98750;-95
2022/05/24 21:48:41;;;;;;;8.50;4.00;;;;;;;16.94;86.11;99982.95;3490190;82;98848;-93
2022/05/24 21:53:42;;;;;;;7.35;3.72;;;;;;;16.81;85.86;99993.77;3485402;81;98894;-94
2022/05/24 21:58:44;;;;;;;5.87;3.17;;;;;;;16.68;85.61;99995.63;3470424;82;26490;-94
2022/05/24 22:03:45;;;;;;;5.85;2.95;;;;;;;16.56;85.34;100002.60;3474950;82;98779;-90
2022/05/24 22:08:48;;;;;;;5.03;3.10;;;;;;;16.46;85.33;100021.64;3454940;83;99285;-93
2022/05/24 22:13:49;;;;;;;5.10;2.57;;;;;;;16.38;85.05;100019.41;3499926;83;98864;-94
2022/05/24 22:18:50;;;;;;;6.40;3.00;;;;;;;16.29;84.93;100033.84;3482639;82;98945;-93
2022/05/24 22:23:52;;;;;;;4.90;2.72;;;;;;;16.25;84.91;100044.84;3435746;83;98853;-94
2022/05/24 22:28:52;;;;;;;4.03;2.45;;;;;;;16.20;84.79;100043.95;3483585;82;31088;-94
2022/05/24 22:33:54;;;;;;;5.80;2.53;;;;;;;16.16;84.52;100048.17;3506076;82;98888;-96
2022/05/24 22:38:55;;;;;;;5.55;2.60;;;;;;;16.13;84.44;100051.78;3492540;81;98018;-94
2022/05/24 22:43:56;;;;;;;5.67;3.30;;;;;;;16.09;84.27;100051.67;3489120;81;98898;-93
2022/05/24 22:48:57;;;;;;;5.40;2.43;;;;;;;16.05;84.15;100042.61;3465129;82;99047;-93
2022/05/24 22:53:58;;;;;;;3.77;2.40;;;;;;;16.00;84.00;100043.09;3523971;82;98800;-96
2022/05/24 22:58:59;;;;;;;4.53;2.40;;;;;;;15.97;83.96;100038.41;3480052;81;28192;-94
2022/05/24 23:04:00;;;;;;;4.60;2.80;;;;;;;15.93;83.78;100047.39;3429535;83;98756;-94
2022/05/24 23:09:01;;;;;;;4.73;2.90;;;;;;;15.87;84.10;100044.29;3505094;81;98832;-95
2022/05/24 23:14:03;;;;;;;5.03;2.80;;;;;;;15.81;83.98;100043.20;3476185;82;99005;-92
2022/05/24 23:19:04;;;;;;;6.00;3.08;;;;;;;15.77;84.06;100034.17;3505251;82;98920;-95
2022/05/24 23:24:05;;;;;;;4.80;2.80;;;;;;;15.73;84.53;100043.73;3494579;81;98774;-94
2022/05/24 23:29:09;;;;;;;5.00;2.75;;;;;;;15.71;84.62;100058.65;3473038;82;32537;-93
2022/05/24 23:34:15;;;;;;;7.00;2.85;;;;;;;15.65;84.58;100062.48;3458586;82;98665;-92
2022/05/24 23:39:13;;;;;;;3.77;2.37;;;;;;;15.62;84.46;100062.55;3462680;82;98626;-94
2022/05/24 23:44:13;;;;;;;5.00;2.70;;;;;;;15.55;84.44;100060.68;3466176;82;98776;-94
2022/05/24 23:49:15;;;;;;;6.97;2.80;;;;;;;15.44;84.56;100063.41;3462691;83;99224;-94
2022/05/24 23:54:16;;;;;;;6.78;3.25;;;;;;;15.29;84.71;100062.80;3485085;81;98516;-95
2022/05/24 23:59:17;;;;;;;6.33;3.37;;;;;;;15.15;84.83;100067.76;3479292;82;28456;-94
